Time;durP1;ratioP1;P1;durP2;ratioP2;P2;SDS_P1;SDS_P2;PMS_P1;PMS_P2;Temp;Humidity;BMP_temperature;BMP_pressure;BME280_temperature;BME280_humidity;BME280_pressure;Samples;Min_cycle;Max_cycle;Signal;HPM_P1;HPM_P2
2022/05/15 00:01:25;;;;;;;;;;;;;;;-144.99;97.86;52350.25;4966783;28;19991;-73
2022/05/15 00:03:51;;;;;;;;;;;;;;;-144.99;98.72;52403.25;4970448;28;20043;-72
2022/05/15 00:06:18;;;;;;;;;;;;;;;-144.99;99.37;52395.09;4968597;28;19977;-71
2022/05/15 00:08:44;;;;;;;;;;;;;;;-144.99;99.67;52374.72;4973559;28;19962;-72
2022/05/15 00:11:17;;;;;;;;;;;;;;;-144.99;100.00;52415.47;4968177;28;19974;-73
2022/05/15 00:13:43;;;;;;;;;;;;;;;-144.99;100.00;52399.19;4960321;28;19964;-73
2022/05/15 00:16:10;;;;;;;;;;;;;;;-144.99;100.00;52386.94;4969234;28;19952;-72
2022/05/15 00:18:38;;;;;;;;;;;;;;;-144.99;100.00;52378.78;4963200;28;19964;-73
2022/05/15 00:21:04;;;;;;;;;;;;;;;-144.99;100.00;52350.25;4960724;28;19983;-74
2022/05/15 00:23:31;;;;;;;;;;;;;;;-144.99;100.00;52399.19;4963829;28;19977;-73
2022/05/15 00:25:58;;;;;;;;;;;;;;;-144.99;100.00;52382.88;4969427;28;20463;-74
2022/05/15 00:28:26;;;;;;;;;;;;;;;-144.99;99.95;52368.59;4961864;28;20040;-73
2022/05/15 00:30:52;;;;;;;;;;;;;;;-144.99;99.93;52399.19;4959217;28;19970;-73
2022/05/15 00:33:19;;;;;;;;;;;;;;;-144.99;100.00;52382.88;4964038;28;19955;-73
2022/05/15 00:35:46;;;;;;;;;;;;;;;-144.99;100.00;52350.25;4970821;28;20268;-74
2022/05/15 00:38:13;;;;;;;;;;;;;;;-144.99;100.00;52413.44;4966966;28;20081;-73
2022/05/15 00:40:41;;;;;;;;;;;;;;;-144.99;100.00;52407.31;4975912;28;20045;-73
2022/05/15 00:43:09;;;;;;;;;;;;;;;-144.99;100.00;52374.72;4965810;28;19958;-73
2022/05/15 00:45:37;;;;;;;;;;;;;;;-144.99;99.57;52395.09;4971176;28;19967;-73
2022/05/15 00:48:04;;;;;;;;;;;;;;;-144.99;99.45;52391.03;4971969;28;19970;-73
2022/05/15 00:50:32;;;;;;;;;;;;;;;-144.99;99.95;52417.53;4969226;28;19973;-74
2022/05/15 00:52:59;;;;;;;;;;;;;;;-144.99;100.00;52391.03;4957936;28;19957;-73
2022/05/15 00:55:31;;;;;;;;;;;;;;;-144.99;100.00;52395.09;4971623;28;19960;-72
2022/05/15 00:57:58;;;;;;;;;;;;;;;-144.99;100.00;52378.78;4966395;28;19974;-73
2022/05/15 01:00:27;;;;;;;;;;;;;;;-144.99;100.00;52388.97;4963072;28;19979;-74
2022/05/15 01:02:59;;;;;;;;;;;;;;;-144.99;100.00;52378.78;4958036;28;19952;-73
2022/05/15 01:05:25;;;;;;;;;;;;;;;-144.99;100.00;52366.56;4965920;28;19954;-74
2022/05/15 01:07:52;;;;;;;;;;;;;;;-144.99;100.00;52378.78;4966565;28;19954;-74
2022/05/15 01:10:19;;;;;;;;;;;;;;;-144.99;99.76;52395.09;4963343;28;19973;-73
2022/05/15 01:12:45;;;;;;;;;;;;;;;-144.99;99.12;52348.22;4964284;28;19956;-73
2022/05/15 01:15:15;;;;;;;;;;;;;;;-144.99;99.20;52415.47;4969259;28;20423;-72
2022/05/15 01:17:42;;;;;;;;;;;;;;;-144.99;100.00;52372.69;4964581;28;19989;-72
2022/05/15 01:20:12;;;;;;;;;;;;;;;-144.99;100.00;52350.25;4954212;28;19972;-72
2022/05/15 01:22:40;;;;;;;;;;;;;;;-144.99;99.99;52456.25;4966871;28;19968;-73
2022/05/15 01:25:10;;;;;;;;;;;;;;;-144.99;99.45;52407.31;4960874;28;19969;-70
2022/05/15 01:27:37;;;;;;;;;;;;;;;-144.99;98.86;52407.31;4966082;28;19964;-73
2022/05/15 01:30:05;;;;;;;;;;;;;;;-144.99;98.44;52403.25;4951154;28;19980;-72
2022/05/15 01:32:31;;;;;;;;;;;;;;;-144.99;98.42;52354.34;4966825;28;20057;-73
2022/05/15 01:34:58;;;;;;;;;;;;;;;-144.99;99.10;52407.31;4968319;28;19965;-71
2022/05/15 01:37:24;;;;;;;;;;;;;;;-144.99;99.68;52338.03;4959673;28;19979;-73
2022/05/15 01:39:52;;;;;;;;;;;;;;;-144.99;99.40;52386.94;4963021;28;19961;-73
2022/05/15 01:42:18;;;;;;;;;;;;;;;-144.99;99.31;52429.75;4967637;28;19957;-70
2022/05/15 01:44:44;;;;;;;;;;;;;;;-144.99;99.47;52346.19;4963371;28;19954;-69
2022/05/15 01:47:11;;;;;;;;;;;;;;;-144.99;99.35;52356.38;4966606;28;19954;-70
2022/05/15 01:49:37;;;;;;;;;;;;;;;-144.99;99.08;52382.88;4965414;28;19964;-71
2022/05/15 01:52:04;;;;;;;;;;;;;;;-144.99;99.12;52431.78;4955774;28;20011;-71
2022/05/15 01:54:30;;;;;;;;;;;;;;;-144.99;98.67;52403.25;4968428;28;20093;-70
2022/05/15 01:56:58;;;;;;;;;;;;;;;-144.99;98.61;52403.25;4963509;28;19958;-71
2022/05/15 01:59:24;;;;;;;;;;;;;;;-144.99;98.57;52372.69;4968379;28;20134;-70
2022/05/15 02:01:51;;;;;;;;;;;;;;;-144.99;98.50;52378.78;4959768;28;19972;-71
2022/05/15 02:04:17;;;;;;;;;;;;;;;-144.99;98.56;52391.03;4965929;28;19957;-69
2022/05/15 02:06:43;;;;;;;;;;;;;;;-144.99;98.84;52372.69;4968382;28;19965;-71
2022/05/15 02:09:10;;;;;;;;;;;;;;;-144.99;98.58;52382.88;4963141;28;19947;-71
2022/05/15 02:11:38;;;;;;;;;;;;;;;-144.99;98.85;52372.69;4957547;28;19974;-71
2022/05/15 02:14:06;;;;;;;;;;;;;;;-144.99;99.28;52395.09;4962050;28;19960;-71
2022/05/15 02:16:32;;;;;;;;;;;;;;;-144.99;99.52;52393.06;4965814;28;19972;-69
2022/05/15 02:18:58;;;;;;;;;;;;;;;-144.99;99.71;52407.31;4971820;28;20471;-72
2022/05/15 02:21:25;;;;;;;;;;;;;;;-144.99;99.79;52427.72;4967997;28;19977;-72
2022/05/15 02:23:51;;;;;;;;;;;;;;;-144.99;99.99;52407.31;4968026;28;20389;-72
2022/05/15 02:26:18;;;;;;;;;;;;;;;-144.99;100.00;52374.72;4965466;28;19960;-72
2022/05/15 02:28:44;;;;;;;;;;;;;;;-144.99;99.97;52433.81;4962677;28;19971;-72
2022/05/15 02:31:12;;;;;;;;;;;;;;;-144.99;99.79;52444.03;4958604;28;20435;-71
2022/05/15 02:33:38;;;;;;;;;;;;;;;-144.99;99.39;52386.94;4967422;28;19958;-71
2022/05/15 02:36:05;;;;;;;;;;;;;;;-144.99;98.83;52382.88;4965620;28;19982;-71
2022/05/15 02:38:31;;;;;;;;;;;;;;;-144.99;99.13;52372.69;4964063;28;19986;-70
2022/05/15 02:40:57;;;;;;;;;;;;;;;-144.99;99.33;52407.31;4975338;28;20050;-71
2022/05/15 02:43:23;;;;;;;;;;;;;;;-144.99;99.79;52374.72;4961788;28;19966;-70
2022/05/15 02:45:50;;;;;;;;;;;;;;;-144.99;100.00;52417.53;4960290;28;19962;-70
2022/05/15 02:51:04;;;;;;;;;;;;;;;-144.99;100.00;52417.53;4950695;28;20104;-73
2022/05/15 02:53:31;;;;;;;;;;;;;;;-144.99;100.00;52391.03;4965589;28;19962;-73
2022/05/15 02:55:57;;;;;;;;;;;;;;;-144.99;100.00;52411.41;4964796;28;19960;-74
2022/05/15 02:58:24;;;;;;;;;;;;;;;-144.99;100.00;52431.78;4969094;28;19972;-74
2022/05/15 03:00:50;;;;;;;;;;;;;;;-144.99;100.00;52456.25;4613117;28;9999844;-73
2022/05/15 03:03:17;;;;;;;;;;;;;;;-144.99;100.00;52386.94;4966719;28;19966;-74
2022/05/15 03:05:44;;;;;;;;;;;;;;;-144.99;100.00;52431.78;4966584;28;19974;-72
2022/05/15 03:08:10;;;;;;;;;;;;;;;-144.99;100.00;52419.56;4969262;28;20289;-74
2022/05/15 03:10:36;;;;;;;;;;;;;;;-144.99;100.00;52370.63;4960992;28;19985;-73
2022/05/15 03:13:03;;;;;;;;;;;;;;;-144.99;100.00;52380.84;4971897;28;20038;-73
2022/05/15 03:15:29;;;;;;;;;;;;;;;-144.99;100.00;52419.56;5028039;22;19963;-78
2022/05/15 03:17:55;;;;;;;;;;;;;;;-144.99;100.00;52403.25;5018277;28;19980;-77
2022/05/15 03:20:27;;;;;;;;;;;;;;;-144.99;100.00;52399.19;5007068;28;19961;-78
2022/05/15 03:22:53;;;;;;;;;;;;;;;-144.99;100.00;52411.41;5016989;28;20024;-78
2022/05/15 03:25:20;;;;;;;;;;;;;;;-144.99;100.00;52372.69;5010305;28;20085;-75
2022/05/15 03:27:46;;;;;;;;;;;;;;;-144.99;100.00;52419.56;5008385;28;19953;-78
2022/05/15 03:30:13;;;;;;;;;;;;;;;-144.99;100.00;52391.03;5005349;28;19947;-79
2022/05/15 03:32:39;;;;;;;;;;;;;;;-144.99;100.00;52378.78;5013205;28;19970;-75
2022/05/15 03:35:08;;;;;;;;;;;;;;;-144.99;100.00;52435.88;5014280;28;20019;-76
2022/05/15 03:37:35;;;;;;;;;;;;;;;-144.99;100.00;52444.03;5006122;28;19960;-73
2022/05/15 03:40:02;;;;;;;;;;;;;;;-144.99;100.00;52370.63;5000192;28;19984;-75
2022/05/15 03:42:28;;;;;;;;;;;;;;;-144.99;100.00;52391.03;5014485;28;19954;-75
2022/05/15 03:44:54;;;;;;;;;;;;;;;-144.99;100.00;52395.09;5007385;28;19977;-74
2022/05/15 03:47:21;;;;;;;;;;;;;;;-144.99;100.00;52374.72;5014234;28;19972;-76
2022/05/15 03:49:48;;;;;;;;;;;;;;;-144.99;100.00;52403.25;5012816;28;19977;-76
2022/05/15 03:52:16;;;;;;;;;;;;;;;-144.99;100.00;52421.59;5007164;28;19958;-76
2022/05/15 03:54:43;;;;;;;;;;;;;;;-144.99;100.00;52401.22;5015431;28;19974;-76
2022/05/15 03:57:10;;;;;;;;;;;;;;;-144.99;100.00;52415.47;5011350;28;19985;-75
2022/05/15 03:59:37;;;;;;;;;;;;;;;-144.99;100.00;52407.31;5001911;28;19981;-75
2022/05/15 04:02:05;;;;;;;;;;;;;;;-144.99;100.00;52395.09;5003814;28;19964;-76
2022/05/15 04:04:32;;;;;;;;;;;;;;;-144.99;100.00;52423.63;5011027;28;19976;-73
2022/05/15 04:06:59;;;;;;;;;;;;;;;-144.99;100.00;52354.34;5001136;28;19983;-72
2022/05/15 04:09:26;;;;;;;;;;;;;;;-144.99;100.00;52427.72;5002290;28;19954;-72
2022/05/15 04:11:54;;;;;;;;;;;;;;;-144.99;100.00;52415.47;4987532;28;19964;-72
2022/05/15 04:14:21;;;;;;;;;;;;;;;-144.99;100.00;52358.41;4999400;28;20003;-73
2022/05/15 04:16:47;;;;;;;;;;;;;;;-144.99;100.00;52407.31;4994050;28;20018;-73
2022/05/15 04:19:14;;;;;;;;;;;;;;;-144.99;100.00;52391.03;4996884;28;19998;-74
2022/05/15 04:21:41;;;;;;;;;;;;;;;-144.99;100.00;52407.31;4999883;28;19957;-74
2022/05/15 04:24:08;;;;;;;;;;;;;;;-144.99;100.00;52374.72;4999409;28;19959;-74
2022/05/15 04:26:35;;;;;;;;;;;;;;;-144.99;100.00;52407.31;4995991;28;19958;-74
2022/05/15 04:29:03;;;;;;;;;;;;;;;-144.99;100.00;52399.19;4990907;28;19978;-75
2022/05/15 04:31:30;;;;;;;;;;;;;;;-144.99;100.00;52372.69;4992138;28;19970;-76
2022/05/15 04:33:56;;;;;;;;;;;;;;;-144.99;100.00;52386.94;4999725;28;19972;-75
2022/05/15 04:36:22;;;;;;;;;;;;;;;-144.99;100.00;52391.03;4996614;28;19965;-73
2022/05/15 04:38:49;;;;;;;;;;;;;;;-144.99;100.00;52435.88;4991463;28;19977;-75
2022/05/15 04:41:15;;;;;;;;;;;;;;;-144.99;100.00;52378.78;4985455;28;19974;-73
2022/05/15 04:43:42;;;;;;;;;;;;;;;-144.99;100.00;52350.25;4991675;28;19954;-72
2022/05/15 04:46:09;;;;;;;;;;;;;;;-144.99;100.00;52368.59;4985324;28;19985;-74
2022/05/15 04:48:36;;;;;;;;;;;;;;;-144.99;100.00;52338.03;4995925;28;19970;-74
2022/05/15 04:51:02;;;;;;;;;;;;;;;-144.99;100.00;52413.44;4978567;28;19986;-72
2022/05/15 04:53:28;;;;;;;;;;;;;;;-144.99;100.00;52370.63;4997153;28;19962;-72
2022/05/15 04:55:55;;;;;;;;;;;;;;;-144.99;100.00;52395.09;4998699;28;19993;-71
2022/05/15 04:58:21;;;;;;;;;;;;;;;-144.99;100.00;52378.78;4994132;28;19993;-72
2022/05/15 05:00:48;;;;;;;;;;;;;;;-144.99;100.00;52362.50;4982207;28;19983;-74
2022/05/15 05:03:16;;;;;;;;;;;;;;;-144.99;100.00;52327.84;4995614;28;19974;-76
2022/05/15 05:05:42;;;;;;;;;;;;;;;-144.99;100.00;52364.53;4996630;28;20141;-74
2022/05/15 05:08:09;;;;;;;;;;;;;;;-144.99;100.00;52366.56;4996905;28;20022;-75
2022/05/15 05:10:36;;;;;;;;;;;;;;;-144.99;100.00;52350.25;4989713;28;20372;-74
2022/05/15 05:13:02;;;;;;;;;;;;;;;-144.99;100.00;52350.25;4988219;28;19980;-73
2022/05/15 05:15:28;;;;;;;;;;;;;;;-144.99;100.00;52333.94;4994868;28;19984;-72
2022/05/15 05:17:55;;;;;;;;;;;;;;;-144.99;99.81;52354.34;4996734;28;19973;-74
2022/05/15 05:20:24;;;;;;;;;;;;;;;-144.99;99.25;52338.03;4988738;28;19989;-72
2022/05/15 05:22:50;;;;;;;;;;;;;;;-144.99;99.03;52384.91;4993198;28;19986;-72
2022/05/15 05:25:17;;;;;;;;;;;;;;;-144.99;98.92;52376.75;4988982;28;19992;-72
2022/05/15 05:27:45;;;;;;;;;;;;;;;-144.99;98.28;52382.88;4985814;28;19972;-72
2022/05/15 05:30:13;;;;;;;;;;;;;;;-144.99;97.50;52366.56;4974779;28;20051;-75
2022/05/15 05:32:39;;;;;;;;;;;;;;;-144.99;96.04;52352.28;4986970;28;19980;-75
2022/05/15 05:35:06;;;;;;;;;;;;;;;-144.99;96.00;52358.41;4982621;28;19988;-76
2022/05/15 05:37:34;;;;;;;;;;;;;;;-144.99;96.19;52321.72;4985222;28;19972;-76
2022/05/15 05:40:00;;;;;;;;;;;;;;;-144.99;96.12;52325.81;4983940;28;20380;-75
2022/05/15 05:42:27;;;;;;;;;;;;;;;-144.99;95.60;52342.09;4990318;28;19975;-74
2022/05/15 05:44:54;;;;;;;;;;;;;;;-144.99;95.34;52348.22;4981351;28;19989;-74
2022/05/15 05:47:23;;;;;;;;;;;;;;;-144.99;94.97;52346.19;4993476;28;19988;-75
2022/05/15 05:49:49;;;;;;;;;;;;;;;-144.99;95.87;52388.97;4989963;28;20210;-75
2022/05/15 05:52:16;;;;;;;;;;;;;;;-144.99;95.95;52329.88;4991062;28;19978;-75
2022/05/15 05:54:44;;;;;;;;;;;;;;;-144.99;95.96;52321.72;4991217;28;20015;-74
2022/05/15 05:57:10;;;;;;;;;;;;;;;-144.99;96.54;52313.56;4986760;28;19975;-75
2022/05/15 05:59:37;;;;;;;;;;;;;;;-144.99;97.03;52342.09;4976168;28;20298;-74
2022/05/15 06:02:04;;;;;;;;;;;;;;;-144.99;97.03;52350.25;4990263;28;19980;-74
2022/05/15 06:07:12;;;;;;;;;;;;;;;-144.99;97.01;52325.81;4993898;28;20046;-77
2022/05/15 06:09:39;;;;;;;;;;;;;;;-144.99;96.84;52368.59;4979551;28;19971;-75
2022/05/15 06:12:07;;;;;;;;;;;;;;;-144.99;96.23;52346.19;4993037;28;20007;-76
2022/05/15 06:14:33;;;;;;;;;;;;;;;-144.99;95.84;52317.66;5003975;28;19999;-76
2022/05/15 06:17:00;;;;;;;;;;;;;;;-144.99;95.44;52354.34;4995338;28;19950;-75
2022/05/15 06:19:26;;;;;;;;;;;;;;;-144.99;94.83;52291.16;4979465;28;19972;-74
2022/05/15 06:21:52;;;;;;;;;;;;;;;-144.99;94.17;52289.13;4989362;28;19948;-73
2022/05/15 06:24:19;;;;;;;;;;;;;;;-144.99;93.63;52293.19;5007486;28;19961;-74
2022/05/15 06:26:45;;;;;;;;;;;;;;;-144.99;93.00;52338.03;4984255;28;19954;-73
2022/05/15 06:29:13;;;;;;;;;;;;;;;-144.99;92.03;52266.69;4984120;28;19955;-74
2022/05/15 06:31:39;;;;;;;;;;;;;;;-144.99;90.54;52319.69;4989109;28;19938;-75
2022/05/15 06:34:06;;;;;;;;;;;;;;;-144.99;89.81;52309.50;4993878;28;19941;-73
2022/05/15 06:36:32;;;;;;;;;;;;;;;-144.99;88.69;52289.13;4992349;28;19937;-72
2022/05/15 06:38:58;;;;;;;;;;;;;;;-144.99;87.63;52309.50;4983664;28;19983;-74
2022/05/15 06:41:24;;;;;;;;;;;;;;;-144.99;86.25;52301.34;4985538;28;19926;-75
2022/05/15 06:43:51;;;;;;;;;;;;;;;-144.99;84.77;52301.34;4992646;28;19926;-75
2022/05/15 06:46:19;;;;;;;;;;;;;;;-144.99;83.32;52289.13;4988561;28;19956;-74
2022/05/15 06:48:45;;;;;;;;;;;;;;;-144.99;81.74;52301.34;4993465;28;19926;-76
2022/05/15 06:51:14;;;;;;;;;;;;;;;-144.99;81.36;52301.34;4980428;28;19948;-76
2022/05/15 06:53:41;;;;;;;;;;;;;;;-144.99;79.99;52244.28;4993207;28;19926;-75
2022/05/15 06:58:51;;;;;;;;;;;;;;;-144.99;76.34;52287.06;4978760;28;19933;-74
2022/05/15 07:01:19;;;;;;;;;;;;;;;-144.99;74.50;52256.50;4985566;28;20103;-75
2022/05/15 07:03:45;;;;;;;;;;;;;;;-144.99;73.83;52244.28;5000762;28;20001;-77
2022/05/15 07:06:11;;;;;;;;;;;;;;;-144.99;69.51;52293.19;4992500;28;19925;-77
2022/05/15 07:08:38;;;;;;;;;;;;;;;-144.99;67.79;52317.66;4988411;28;20376;-77
2022/05/15 07:11:05;;;;;;;;;;;;;;;-144.99;66.22;52262.63;4990246;28;19925;-76
2022/05/15 07:13:32;;;;;;;;;;;;;;;-144.99;64.22;52303.38;4991261;28;19925;-77
2022/05/15 07:15:59;;;;;;;;;;;;;;;-144.99;65.72;52283.00;4993789;28;20543;-76
2022/05/15 07:18:26;;;;;;;;;;;;;;;-144.99;63.55;52303.38;4988899;28;19933;-76
2022/05/15 07:20:53;;;;;;;;;;;;;;;-144.99;62.60;52305.41;4991356;28;19948;-76
2022/05/15 07:23:19;;;;;;;;;;;;;;;-144.99;65.31;52278.91;4985124;28;19980;-76
2022/05/15 07:25:46;;;;;;;;;;;;;;;-144.99;65.52;52293.19;4991621;28;19930;-77
2022/05/15 07:28:13;;;;;;;;;;;;;;;-144.99;64.64;52317.66;4982430;28;20373;-78
2022/05/15 07:30:39;;;;;;;;;;;;;;;-144.99;63.31;52291.16;4990073;28;20022;-79
2022/05/15 07:33:06;;;;;;;;;;;;;;;-144.99;62.98;52260.56;4993073;28;20019;-77
2022/05/15 07:35:33;;;;;;;;;;;;;;;-144.99;62.54;52248.34;4993500;28;19941;-77
2022/05/15 07:38:00;;;;;;;;;;;;;;;-144.99;59.44;52264.66;4992063;28;19926;-79
2022/05/15 07:40:26;;;;;;;;;;;;;;;-144.99;59.49;52293.19;4985590;28;19926;-77
2022/05/15 07:42:53;;;;;;;;;;;;;;;-144.99;59.92;52317.66;4996337;28;20013;-83
2022/05/15 07:45:21;;;;;;;;;;;;;;;-144.99;59.02;52291.16;4980666;28;19930;-76
2022/05/15 07:47:47;;;;;;;;;;;;;;;-144.99;58.75;52321.72;4993474;28;19961;-75
2022/05/15 07:50:14;;;;;;;;;;;;;;;-144.99;59.42;52256.50;4983781;28;19946;-76
2022/05/15 07:52:41;;;;;;;;;;;;;;;-144.99;58.30;52260.56;4990942;28;19933;-74
2022/05/15 07:55:08;;;;;;;;;;;;;;;-144.99;56.31;52264.66;4991320;28;19926;-75
2022/05/15 07:57:35;;;;;;;;;;;;;;;-144.99;56.23;52276.88;4984919;28;19926;-75
2022/05/15 08:00:03;;;;;;;;;;;;;;;-144.99;56.68;52252.44;4978272;28;19976;-76
2022/05/15 08:02:29;;;;;;;;;;;;;;;-144.99;55.73;52285.03;4992146;28;19933;-76
2022/05/15 08:10:25;;;;;;;;;;;;;;;-144.99;51.46;52280.97;4979798;28;20027;-77
2022/05/15 08:12:51;;;;;;;;;;;;;;;-144.99;51.46;52240.19;4985749;28;19926;-76
2022/05/15 08:15:17;;;;;;;;;;;;;;;-144.99;51.79;52252.44;4989386;28;20305;-76
2022/05/15 08:17:44;;;;;;;;;;;;;;;-144.99;50.51;52215.75;4984087;28;19936;-77
2022/05/15 08:25:40;;;;;;;;;;;;;;;-144.99;48.77;52219.81;4981688;28;19987;-78
2022/05/15 08:28:06;;;;;;;;;;;;;;;-144.99;48.19;52211.66;4988599;28;19930;-76
2022/05/15 08:30:33;;;;;;;;;;;;;;;-144.99;44.97;52240.19;4976496;28;20125;-76
2022/05/15 08:32:59;;;;;;;;;;;;;;;-144.99;44.45;52223.88;4990756;28;19926;-75
2022/05/15 08:35:26;;;;;;;;;;;;;;;-144.99;44.65;52227.97;4986864;28;20002;-76
2022/05/15 08:37:52;;;;;;;;;;;;;;;-144.99;44.07;52203.50;4985524;28;20313;-78
2022/05/15 08:40:21;;;;;;;;;;;;;;;-144.99;44.37;52244.28;4982413;28;19926;-76
2022/05/15 08:42:54;;;;;;;;;;;;;;;-144.99;44.35;52223.88;4986573;28;19926;-76
2022/05/15 08:45:23;;;;;;;;;;;;;;;-144.99;44.86;52262.63;4982580;28;20043;-79
2022/05/15 08:47:53;;;;;;;;;;;;;;;-144.99;44.66;52252.44;4991040;28;19941;-76
2022/05/15 08:50:22;;;;;;;;;;;;;;;-144.99;43.76;52246.31;4991884;28;19933;-77
2022/05/15 08:52:53;;;;;;;;;;;;;;;-144.99;42.44;52248.34;4976995;28;19926;-76
2022/05/15 08:55:22;;;;;;;;;;;;;;;-144.99;42.73;52232.03;4991366;28;19930;-77
2022/05/15 08:57:52;;;;;;;;;;;;;;;-144.99;43.66;52215.75;4986858;28;19933;-76
2022/05/15 09:00:21;;;;;;;;;;;;;;;-144.99;42.97;52232.03;4989496;28;19933;-77
2022/05/15 09:02:47;;;;;;;;;;;;;;;-144.99;43.28;52203.50;4973901;28;19933;-76
2022/05/15 09:05:14;;;;;;;;;;;;;;;-144.99;42.95;52211.66;4982283;28;19969;-77
2022/05/15 09:07:56;;;;;;;;;;;;;;;-144.99;42.59;52203.50;4995974;28;19936;-77
2022/05/15 09:10:31;;;;;;;;;;;;;;;-144.99;42.87;52223.88;5003544;28;19965;-78
2022/05/15 09:13:04;;;;;;;;;;;;;;;-144.99;41.94;52223.88;4991435;28;19926;-78
2022/05/15 09:15:31;;;;;;;;;;;;;;;-144.99;42.14;52205.53;4991121;28;19934;-76
2022/05/15 09:18:01;;;;;;;;;;;;;;;-144.99;41.54;52174.97;4990086;23;19957;-74
2022/05/15 09:20:36;;;;;;;;;;;;;;;-144.99;41.69;52183.13;4982730;28;19926;-75
2022/05/15 09:23:09;;;;;;;;;;;;;;;-144.99;42.01;52181.09;4984987;28;19926;-74
2022/05/15 09:25:37;;;;;;;;;;;;;;;-144.99;41.84;52181.09;4972197;28;19930;-74
2022/05/15 09:28:06;;;;;;;;;;;;;;;-144.99;41.91;52189.25;4988428;28;19949;-73
2022/05/15 09:30:34;;;;;;;;;;;;;;;-144.99;41.25;52232.03;5002301;28;19929;-74
2022/05/15 09:33:00;;;;;;;;;;;;;;;-144.99;40.50;52213.69;4995591;28;19972;-72
2022/05/15 09:35:30;;;;;;;;;;;;;;;-144.99;40.29;52248.34;5009295;28;20005;-73
2022/05/15 09:43:30;;;;;;;;;;;;;;;-144.99;39.49;52227.97;4993188;28;19932;-73
2022/05/15 09:43:32;;;;;;;;;;;;;;;-144.99;39.17;52174.97;5009699;28;19932;-73
2022/05/15 09:45:59;;;;;;;;;;;;;;;-144.99;39.86;52199.44;5004846;28;20503;-74
2022/05/15 09:48:34;;;;;;;;;;;;;;;-144.99;39.98;52166.81;4999879;28;19937;-74
2022/05/15 09:51:01;;;;;;;;;;;;;;;-144.99;39.78;52142.38;4991796;28;19925;-76
2022/05/15 09:53:34;;;;;;;;;;;;;;;-144.99;39.96;52195.34;4998535;28;19929;-74
2022/05/15 09:56:01;;;;;;;;;;;;;;;-144.99;39.67;52170.91;5003224;28;19934;-74
2022/05/15 09:58:36;;;;;;;;;;;;;;;-144.99;39.15;52138.28;4995423;28;19933;-75
2022/05/15 10:01:21;;;;;;;;;;;;;;;-144.99;39.63;52170.91;4996938;28;19976;-74
2022/05/15 10:03:49;;;;;;;;;;;;;;;-144.99;39.19;52146.44;4994492;28;19949;-75
2022/05/15 10:06:19;;;;;;;;;;;;;;;-144.99;39.17;52170.91;4993965;28;20403;-74
2022/05/15 10:08:46;;;;;;;;;;;;;;;-144.99;37.93;52174.97;5005371;28;20313;-74
2022/05/15 10:11:16;;;;;;;;;;;;;;;-144.99;38.95;52160.72;4992679;28;19926;-73
2022/05/15 10:13:45;;;;;;;;;;;;;;;-144.99;38.50;52158.66;5006219;28;20017;-76
2022/05/15 10:16:14;;;;;;;;;;;;;;;-144.99;38.04;52105.69;5009298;28;19960;-73
2022/05/15 10:18:45;;;;;;;;;;;;;;;-144.99;38.05;52174.97;4992335;28;19933;-75
2022/05/15 10:21:13;;;;;;;;;;;;;;;-144.99;38.46;52158.66;4997984;28;20388;-75
2022/05/15 10:23:43;;;;;;;;;;;;;;;-144.99;38.95;52162.75;4989707;28;19926;-75
2022/05/15 10:26:13;;;;;;;;;;;;;;;-144.99;38.98;52126.06;4989459;28;20400;-74
2022/05/15 10:28:41;;;;;;;;;;;;;;;-144.99;38.78;52142.38;4990026;28;20020;-75
2022/05/15 10:31:11;;;;;;;;;;;;;;;-144.99;38.46;52142.38;4991929;28;19933;-76
2022/05/15 10:33:38;;;;;;;;;;;;;;;-144.99;37.84;52113.84;4992558;28;19925;-76
2022/05/15 10:36:10;;;;;;;;;;;;;;;-144.99;37.47;52103.66;4999513;28;20047;-76
2022/05/15 10:38:44;;;;;;;;;;;;;;;-144.99;37.21;52081.22;5000085;28;20380;-76
2022/05/15 10:41:15;;;;;;;;;;;;;;;-144.99;36.81;52071.03;4996863;28;19926;-75
2022/05/15 10:43:58;;;;;;;;;;;;;;;-144.99;36.33;52036.38;5005323;28;19933;-75
2022/05/15 10:46:30;;;;;;;;;;;;;;;-144.99;36.26;52066.97;4989171;28;19926;-74
2022/05/15 10:49:02;;;;;;;;;;;;;;;-144.99;36.06;52032.31;4989077;28;19926;-75
2022/05/15 10:51:37;;;;;;;;;;;;;;;-144.99;35.70;52028.22;4999615;28;19988;-74
2022/05/15 10:57:25;;;;;;;;;;;;;;;-144.99;34.13;52020.09;5010701;28;20402;-75
2022/05/15 10:59:54;;;;;;;;;;;;;;;-144.99;33.77;52052.69;4995149;28;19980;-75
2022/05/15 11:02:34;;;;;;;;;;;;;;;-144.99;34.12;52077.16;4996654;28;19976;-75
2022/05/15 11:05:03;;;;;;;;;;;;;;;-144.99;34.33;52030.28;4993854;28;19937;-74
2022/05/15 11:07:35;;;;;;;;;;;;;;;-144.99;34.86;52060.84;4997829;28;19932;-75
2022/05/15 11:10:05;;;;;;;;;;;;;;;-144.99;35.12;52052.69;5004853;28;19930;-76
2022/05/15 11:12:36;;;;;;;;;;;;;;;-144.99;34.45;52073.06;4992985;28;19926;-74
2022/05/15 11:15:08;;;;;;;;;;;;;;;-144.99;35.53;52052.69;5003715;28;19933;-76
2022/05/15 11:17:39;;;;;;;;;;;;;;;-144.99;34.17;52044.53;5001398;28;19936;-75
2022/05/15 11:20:07;;;;;;;;;;;;;;;-144.99;34.85;52099.56;4995158;28;19949;-75
2022/05/15 11:22:39;;;;;;;;;;;;;;;-144.99;34.58;52064.91;4993284;28;20400;-75
2022/05/15 11:25:08;;;;;;;;;;;;;;;-144.99;34.17;52052.69;4993975;28;19941;-74
2022/05/15 11:27:39;;;;;;;;;;;;;;;-144.99;34.52;52069.00;5000553;28;19926;-75
2022/05/15 11:30:09;;;;;;;;;;;;;;;-144.99;34.68;52069.00;4999947;28;19932;-75
2022/05/15 11:32:40;;;;;;;;;;;;;;;-144.99;34.25;52064.91;4998067;28;19929;-74
2022/05/15 11:35:12;;;;;;;;;;;;;;;-144.99;34.48;52050.66;4992272;28;19926;-75
2022/05/15 11:37:44;;;;;;;;;;;;;;;-144.99;33.91;52056.78;4995474;28;19934;-78
2022/05/15 11:40:12;;;;;;;;;;;;;;;-144.99;33.15;52024.16;4998504;28;19926;-75
2022/05/15 11:42:38;;;;;;;;;;;;;;;-144.99;33.36;52058.81;4997721;28;19925;-76
2022/05/15 11:45:23;;;;;;;;;;;;;;;-144.99;33.14;52007.84;4992503;28;19930;-75
2022/05/15 11:47:58;;;;;;;;;;;;;;;-144.99;32.69;52052.69;5003006;28;19933;-75
2022/05/15 11:50:31;;;;;;;;;;;;;;;-144.99;33.42;52024.16;5001273;28;19939;-75
2022/05/15 11:53:08;;;;;;;;;;;;;;;-144.99;32.15;52056.78;4998183;28;19937;-76
2022/05/15 11:55:39;;;;;;;;;;;;;;;-144.99;32.96;52028.22;4997480;28;19950;-75
2022/05/15 11:58:16;;;;;;;;;;;;;;;-144.99;32.94;52030.28;4998423;28;19926;-75
2022/05/15 12:00:43;;;;;;;;;;;;;;;-144.99;32.88;52024.16;5008929;28;20043;-75
2022/05/15 12:03:29;;;;;;;;;;;;;;;-144.99;32.68;52016.00;5008206;28;19926;-75
2022/05/15 12:06:02;;;;;;;;;;;;;;;-144.99;32.27;52016.00;5010557;28;19926;-77
2022/05/15 12:08:32;;;;;;;;;;;;;;;-144.99;32.12;51993.59;4996219;28;20676;-75
2022/05/15 12:10:59;;;;;;;;;;;;;;;-144.99;32.19;52040.47;4995365;28;19930;-74
2022/05/15 12:13:34;;;;;;;;;;;;;;;-144.99;31.99;52036.38;4997726;28;19996;-76
2022/05/15 12:16:14;;;;;;;;;;;;;;;-144.99;32.15;52109.75;5000320;28;19929;-75
2022/05/15 12:18:41;;;;;;;;;;;;;;;-144.99;33.20;52093.44;4999411;28;19925;-74
2022/05/15 12:21:08;;;;;;;;;;;;;;;-144.99;32.61;52093.44;4996957;28;19930;-75
2022/05/15 12:23:37;;;;;;;;;;;;;;;-144.99;32.70;52101.59;4996966;28;21523;-75
2022/05/15 12:26:12;;;;;;;;;;;;;;;-144.99;32.98;52117.91;5001976;28;19926;-76
2022/05/15 12:28:53;;;;;;;;;;;;;;;-144.99;33.44;52093.44;4995355;28;19941;-74
2022/05/15 12:31:22;;;;;;;;;;;;;;;-144.99;33.88;52113.84;4309634;28;10000725;-75
2022/05/15 12:33:51;;;;;;;;;;;;;;;-144.99;32.68;52079.19;5001461;28;19940;-75
2022/05/15 12:36:21;;;;;;;;;;;;;;;-144.99;33.11;52060.84;4996746;28;19933;-75
2022/05/15 12:38:52;;;;;;;;;;;;;;;-144.99;32.94;52060.84;5000067;28;19936;-75
2022/05/15 12:41:21;;;;;;;;;;;;;;;-144.99;32.42;52073.06;4989079;28;19940;-75
2022/05/15 12:43:49;;;;;;;;;;;;;;;-144.99;31.78;52044.53;4996161;28;19937;-76
2022/05/15 12:46:26;;;;;;;;;;;;;;;-144.99;32.21;52081.22;4994452;28;19929;-75
2022/05/15 12:48:52;;;;;;;;;;;;;;;-144.99;32.83;52089.38;5001706;28;19925;-74
2022/05/15 12:51:25;;;;;;;;;;;;;;;-144.99;32.48;52130.13;4995142;28;20087;-77
2022/05/15 12:53:53;;;;;;;;;;;;;;;-144.99;32.44;52079.19;4999136;28;19929;-76